sensor_id;sensor_type;location;lat;lon;timestamp;temperature;humidity
21518;DHT22;61765;45.794;24.150;2022-10-04T00:02:22;16.70;88.80
21518;DHT22;61765;45.794;24.150;2022-10-04T00:10:31;16.60;89.20
21518;DHT22;61765;45.794;24.150;2022-10-04T00:18:39;16.70;89.10
21518;DHT22;61765;45.794;24.150;2022-10-04T00:27:18;16.70;88.90
21518;DHT22;61765;45.794;24.150;2022-10-04T00:35:46;16.70;88.50
21518;DHT22;61765;45.794;24.150;2022-10-04T00:43:55;16.70;88.80
21518;DHT22;61765;45.794;24.150;2022-10-04T00:52:06;16.70;89.40
21518;DHT22;61765;45.794;24.150;2022-10-04T01:00:18;16.60;89.80
21518;DHT22;61765;45.794;24.150;2022-10-04T01:08:26;16.40;89.80
21518;DHT22;61765;45.794;24.150;2022-10-04T01:16:37;16.30;90.00
21518;DHT22;61765;45.794;24.150;2022-10-04T01:24:45;16.10;90.10
21518;DHT22;61765;45.794;24.150;2022-10-04T01:32:50;16.00;90.30
21518;DHT22;61765;45.794;24.150;2022-10-04T01:41:00;16.20;90.20
21518;DHT22;61765;45.794;24.150;2022-10-04T01:49:12;16.20;90.10
21518;DHT22;61765;45.794;24.150;2022-10-04T01:57:26;16.00;90.50
21518;DHT22;61765;45.794;24.150;2022-10-04T02:05:39;16.20;90.60
21518;DHT22;61765;45.794;24.150;2022-10-04T02:13:50;16.10;90.50
21518;DHT22;61765;45.794;24.150;2022-10-04T02:21:57;16.10;90.40
21518;DHT22;61765;45.794;24.150;2022-10-04T02:30:10;16.20;90.50
21518;DHT22;61765;45.794;24.150;2022-10-04T02:38:20;16.20;90.30
21518;DHT22;61765;45.794;24.150;2022-10-04T02:46:32;16.30;90.40
21518;DHT22;61765;45.794;24.150;2022-10-04T02:54:42;16.40;90.40
21518;DHT22;61765;45.794;24.150;2022-10-04T03:03:14;16.30;90.50
21518;DHT22;61765;45.794;24.150;2022-10-04T03:11:22;16.40;90.20
21518;DHT22;61765;45.794;24.150;2022-10-04T03:19:32;16.30;90.00
21518;DHT22;61765;45.794;24.150;2022-10-04T03:27:38;16.20;90.00
21518;DHT22;61765;45.794;24.150;2022-10-04T03:35:49;16.40;89.50
21518;DHT22;61765;45.794;24.150;2022-10-04T03:43:56;16.50;89.40
21518;DHT22;61765;45.794;24.150;2022-10-04T03:52:16;16.50;89.10
21518;DHT22;61765;45.794;24.150;2022-10-04T04:00:24;16.60;89.40
21518;DHT22;61765;45.794;24.150;2022-10-04T04:08:33;16.60;89.50
21518;DHT22;61765;45.794;24.150;2022-10-04T04:16:40;16.50;89.70
21518;DHT22;61765;45.794;24.150;2022-10-04T04:24:48;16.40;90.00
21518;DHT22;61765;45.794;24.150;2022-10-04T04:32:55;16.40;90.10
21518;DHT22;61765;45.794;24.150;2022-10-04T04:41:10;16.30;90.00
21518;DHT22;61765;45.794;24.150;2022-10-04T04:49:16;16.40;90.00
21518;DHT22;61765;45.794;24.150;2022-10-04T04:57:27;16.50;90.00
21518;DHT22;61765;45.794;24.150;2022-10-04T05:05:35;16.70;89.40
21518;DHT22;61765;45.794;24.150;2022-10-04T05:13:46;16.70;89.70
21518;DHT22;61765;45.794;24.150;2022-10-04T05:21:55;16.70;89.60
21518;DHT22;61765;45.794;24.150;2022-10-04T05:30:12;16.80;90.00
21518;DHT22;61765;45.794;24.150;2022-10-04T05:38:27;16.80;90.00
21518;DHT22;61765;45.794;24.150;2022-10-04T05:46:39;16.90;89.70
21518;DHT22;61765;45.794;24.150;2022-10-04T05:54:45;16.90;89.30
21518;DHT22;61765;45.794;24.150;2022-10-04T06:03:29;17.10;88.50
21518;DHT22;61765;45.794;24.150;2022-10-04T06:11:52;17.10;88.90
21518;DHT22;61765;45.794;24.150;2022-10-04T06:20:28;17.70;88.80
21518;DHT22;61765;45.794;24.150;2022-10-04T06:28:41;18.30;86.00
21518;DHT22;61765;45.794;24.150;2022-10-04T06:37:14;18.00;88.00
21518;DHT22;61765;45.794;24.150;2022-10-04T06:45:45;19.00;84.50
21518;DHT22;61765;45.794;24.150;2022-10-04T06:54:04;19.30;82.70
21518;DHT22;61765;45.794;24.150;2022-10-04T07:02:15;19.80;81.80
21518;DHT22;61765;45.794;24.150;2022-10-04T07:10:30;20.20;80.20
21518;DHT22;61765;45.794;24.150;2022-10-04T07:18:53;19.90;80.40
21518;DHT22;61765;45.794;24.150;2022-10-04T07:27:07;19.70;81.00
21518;DHT22;61765;45.794;24.150;2022-10-04T07:35:28;19.90;80.00
21518;DHT22;61765;45.794;24.150;2022-10-04T07:43:46;19.90;79.90
21518;DHT22;61765;45.794;24.150;2022-10-04T07:52:04;20.10;80.30
21518;DHT22;61765;45.794;24.150;2022-10-04T08:00:16;20.40;79.60
21518;DHT22;61765;45.794;24.150;2022-10-04T08:08:35;20.50;78.90
21518;DHT22;61765;45.794;24.150;2022-10-04T08:16:57;20.60;78.80
21518;DHT22;61765;45.794;24.150;2022-10-04T08:25:17;20.80;78.40
21518;DHT22;61765;45.794;24.150;2022-10-04T08:33:43;20.80;77.60
21518;DHT22;61765;45.794;24.150;2022-10-04T08:50:47;21.20;75.40
21518;DHT22;61765;45.794;24.150;2022-10-04T08:59:19;21.80;75.00
21518;DHT22;61765;45.794;24.150;2022-10-04T09:16:14;22.40;73.40
21518;DHT22;61765;45.794;24.150;2022-10-04T09:24:46;23.00;71.20
21518;DHT22;61765;45.794;24.150;2022-10-04T09:33:24;22.50;70.10
21518;DHT22;61765;45.794;24.150;2022-10-04T09:41:45;21.80;72.50
21518;DHT22;61765;45.794;24.150;2022-10-04T09:50:13;22.20;73.10
21518;DHT22;61765;45.794;24.150;2022-10-04T10:07:30;32.50;57.40
21518;DHT22;61765;45.794;24.150;2022-10-04T10:15:51;39.80;46.30
21518;DHT22;61765;45.794;24.150;2022-10-04T10:24:23;36.40;44.00
21518;DHT22;61765;45.794;24.150;2022-10-04T10:32:46;29.40;51.70
21518;DHT22;61765;45.794;24.150;2022-10-04T10:49:58;37.60;43.10
21518;DHT22;61765;45.794;24.150;2022-10-04T11:07:17;31.20;51.60
21518;DHT22;61765;45.794;24.150;2022-10-04T11:15:42;35.10;47.40
21518;DHT22;61765;45.794;24.150;2022-10-04T11:24:17;35.20;44.10
21518;DHT22;61765;45.794;24.150;2022-10-04T11:41:46;27.20;52.80
21518;DHT22;61765;45.794;24.150;2022-10-04T11:50:07;24.50;59.60
21518;DHT22;61765;45.794;24.150;2022-10-04T11:58:33;22.50;64.50
21518;DHT22;61765;45.794;24.150;2022-10-04T12:06:52;21.40;66.40
21518;DHT22;61765;45.794;24.150;2022-10-04T12:15:32;20.60;68.80
21518;DHT22;61765;45.794;24.150;2022-10-04T12:32:25;21.60;68.20
21518;DHT22;61765;45.794;24.150;2022-10-04T12:40:40;22.10;66.60
21518;DHT22;61765;45.794;24.150;2022-10-04T12:49:02;21.80;66.40
21518;DHT22;61765;45.794;24.150;2022-10-04T12:57:31;22.60;66.50
21518;DHT22;61765;45.794;24.150;2022-10-04T13:05:52;22.70;65.40
21518;DHT22;61765;45.794;24.150;2022-10-04T13:22:47;22.50;66.20
21518;DHT22;61765;45.794;24.150;2022-10-04T13:31:03;22.60;65.10
21518;DHT22;61765;45.794;24.150;2022-10-04T13:39:25;22.70;64.30
21518;DHT22;61765;45.794;24.150;2022-10-04T13:47:45;22.90;63.60
21518;DHT22;61765;45.794;24.150;2022-10-04T13:55:59;22.90;63.90
21518;DHT22;61765;45.794;24.150;2022-10-04T14:04:39;22.60;64.00
21518;DHT22;61765;45.794;24.150;2022-10-04T14:30:15;21.20;66.50
21518;DHT22;61765;45.794;24.150;2022-10-04T14:38:45;20.60;67.80
21518;DHT22;61765;45.794;24.150;2022-10-04T14:47:06;19.90;69.20
21518;DHT22;61765;45.794;24.150;2022-10-04T14:55:28;19.80;70.30
21518;DHT22;61765;45.794;24.150;2022-10-04T15:03:51;20.10;70.70
21518;DHT22;61765;45.794;24.150;2022-10-04T15:21:03;19.80;72.40
21518;DHT22;61765;45.794;24.150;2022-10-04T15:29:19;19.60;72.70
21518;DHT22;61765;45.794;24.150;2022-10-04T15:37:41;19.60;73.10
21518;DHT22;61765;45.794;24.150;2022-10-04T15:46:05;19.50;73.50
21518;DHT22;61765;45.794;24.150;2022-10-04T16:03:14;19.10;74.80
21518;DHT22;61765;45.794;24.150;2022-10-04T16:11:35;19.00;75.20
21518;DHT22;61765;45.794;24.150;2022-10-04T16:20:00;19.00;75.60
21518;DHT22;61765;45.794;24.150;2022-10-04T16:28:16;18.90;75.60
21518;DHT22;61765;45.794;24.150;2022-10-04T16:36:29;18.70;76.10
21518;DHT22;61765;45.794;24.150;2022-10-04T16:44:51;18.80;76.50
21518;DHT22;61765;45.794;24.150;2022-10-04T16:53:14;18.70;76.80
21518;DHT22;61765;45.794;24.150;2022-10-04T17:02:02;18.80;77.00
21518;DHT22;61765;45.794;24.150;2022-10-04T17:10:27;18.70;77.40
21518;DHT22;61765;45.794;24.150;2022-10-04T17:18:46;18.70;77.60
21518;DHT22;61765;45.794;24.150;2022-10-04T17:27:02;18.60;77.20
21518;DHT22;61765;45.794;24.150;2022-10-04T17:44:33;18.80;77.00
21518;DHT22;61765;45.794;24.150;2022-10-04T17:52:46;18.70;77.20
21518;DHT22;61765;45.794;24.150;2022-10-04T18:01:08;18.80;78.10
21518;DHT22;61765;45.794;24.150;2022-10-04T18:09:23;18.50;79.40
21518;DHT22;61765;45.794;24.150;2022-10-04T18:17:35;18.50;79.70
21518;DHT22;61765;45.794;24.150;2022-10-04T18:25:46;18.40;80.70
21518;DHT22;61765;45.794;24.150;2022-10-04T18:33:52;18.30;81.40
21518;DHT22;61765;45.794;24.150;2022-10-04T18:42:13;18.10;82.20
21518;DHT22;61765;45.794;24.150;2022-10-04T18:50:32;18.00;82.60
21518;DHT22;61765;45.794;24.150;2022-10-04T18:58:59;17.90;83.30
21518;DHT22;61765;45.794;24.150;2022-10-04T19:07:25;17.90;83.50
21518;DHT22;61765;45.794;24.150;2022-10-04T19:16:10;17.80;83.80
21518;DHT22;61765;45.794;24.150;2022-10-04T19:24:38;17.90;83.90
21518;DHT22;61765;45.794;24.150;2022-10-04T19:32:57;17.90;84.00
21518;DHT22;61765;45.794;24.150;2022-10-04T19:41:10;17.70;84.70
21518;DHT22;61765;45.794;24.150;2022-10-04T19:49:25;17.70;83.90
21518;DHT22;61765;45.794;24.150;2022-10-04T19:57:38;17.70;84.10
21518;DHT22;61765;45.794;24.150;2022-10-04T20:05:50;17.80;84.30
21518;DHT22;61765;45.794;24.150;2022-10-04T20:22:56;17.80;83.80
21518;DHT22;61765;45.794;24.150;2022-10-04T20:31:03;17.80;83.30
21518;DHT22;61765;45.794;24.150;2022-10-04T20:48:10;17.40;84.30
21518;DHT22;61765;45.794;24.150;2022-10-04T20:56:21;17.30;85.10
21518;DHT22;61765;45.794;24.150;2022-10-04T21:04:29;17.00;85.80
21518;DHT22;61765;45.794;24.150;2022-10-04T21:12:47;17.00;86.20
21518;DHT22;61765;45.794;24.150;2022-10-04T21:21:02;16.80;87.20
21518;DHT22;61765;45.794;24.150;2022-10-04T21:29:10;16.70;86.60
21518;DHT22;61765;45.794;24.150;2022-10-04T21:37:17;16.70;87.00
21518;DHT22;61765;45.794;24.150;2022-10-04T21:45:25;16.50;87.90
21518;DHT22;61765;45.794;24.150;2022-10-04T21:53:30;16.30;87.20
21518;DHT22;61765;45.794;24.150;2022-10-04T22:01:38;16.20;87.20
21518;DHT22;61765;45.794;24.150;2022-10-04T22:09:43;16.10;88.00
21518;DHT22;61765;45.794;24.150;2022-10-04T22:17:51;16.00;88.20
21518;DHT22;61765;45.794;24.150;2022-10-04T22:25:56;16.00;88.50
21518;DHT22;61765;45.794;24.150;2022-10-04T22:34:08;15.80;88.80
21518;DHT22;61765;45.794;24.150;2022-10-04T22:42:17;15.80;88.60
21518;DHT22;61765;45.794;24.150;2022-10-04T22:50:31;15.90;88.50
21518;DHT22;61765;45.794;24.150;2022-10-04T22:58:36;15.70;87.40
21518;DHT22;61765;45.794;24.150;2022-10-04T23:06:44;15.60;86.90
21518;DHT22;61765;45.794;24.150;2022-10-04T23:14:50;15.30;86.50
21518;DHT22;61765;45.794;24.150;2022-10-04T23:22:58;15.40;86.50
21518;DHT22;61765;45.794;24.150;2022-10-04T23:31:09;15.30;86.60
21518;DHT22;61765;45.794;24.150;2022-10-04T23:39:23;15.30;86.60
21518;DHT22;61765;45.794;24.150;2022-10-04T23:47:33;15.30;87.00
21518;DHT22;61765;45.794;24.150;2022-10-04T23:55:43;15.20;87.20
